createdAt,value
2018-07-23T00:00:06.755Z,13.20
2018-07-23T00:02:11.216Z,13.60
2018-07-23T00:04:14.965Z,11.67
2018-07-23T00:06:18.866Z,11.47
2018-07-23T00:08:23.000Z,9.63
2018-07-23T00:10:26.984Z,10.53
2018-07-23T00:12:30.692Z,15.23
2018-07-23T00:14:35.427Z,11.50
2018-07-23T00:16:40.260Z,10.93
2018-07-23T00:18:44.571Z,10.07
2018-07-23T00:20:56.285Z,10.80
2018-07-23T00:23:00.308Z,13.27
2018-07-23T00:25:04.560Z,10.77
2018-07-23T00:27:08.563Z,11.17
2018-07-23T00:29:12.478Z,12.40
2018-07-23T00:31:16.548Z,20.30
2018-07-23T00:33:21.218Z,16.20
2018-07-23T00:35:25.389Z,15.87
2018-07-23T00:37:30.761Z,13.27
2018-07-23T00:39:35.382Z,13.93
2018-07-23T00:41:39.718Z,17.43
2018-07-23T00:43:43.715Z,15.00
2018-07-23T00:45:48.159Z,14.07
2018-07-23T00:47:52.690Z,11.50
2018-07-23T00:49:57.188Z,13.30
2018-07-23T00:52:01.070Z,12.97
2018-07-23T00:54:05.337Z,12.10
2018-07-23T00:56:09.608Z,11.43
2018-07-23T00:58:14.317Z,15.17
2018-07-23T01:00:18.739Z,14.63
2018-07-23T01:02:22.638Z,13.63
2018-07-23T01:04:27.740Z,12.77
2018-07-23T01:06:31.987Z,17.30
2018-07-23T01:08:36.005Z,13.03
2018-07-23T01:10:40.298Z,11.73
2018-07-23T01:12:44.764Z,9.30
2018-07-23T01:14:48.634Z,10.27
2018-07-23T01:16:53.375Z,9.90
2018-07-23T01:18:57.471Z,9.73
2018-07-23T01:21:01.499Z,8.50
2018-07-23T01:23:06.125Z,7.50
2018-07-23T01:25:10.328Z,7.33
2018-07-23T01:27:13.999Z,6.97
2018-07-23T01:29:17.902Z,8.13
2018-07-23T01:31:21.444Z,9.63
2018-07-23T01:33:25.530Z,13.57
2018-07-23T01:35:29.311Z,9.60
2018-07-23T01:37:33.529Z,9.20
2018-07-23T01:39:38.668Z,9.37
2018-07-23T01:41:42.928Z,11.07
2018-07-23T01:43:48.475Z,7.20
2018-07-23T01:45:52.454Z,7.90
2018-07-23T01:47:56.639Z,7.07
2018-07-23T01:50:00.678Z,8.17
2018-07-23T01:52:11.625Z,9.30
2018-07-23T01:54:15.837Z,7.13
2018-07-23T01:56:19.568Z,9.30
2018-07-23T01:58:23.650Z,7.20
2018-07-23T02:00:27.863Z,6.87
2018-07-23T02:02:46.741Z,7.53
2018-07-23T02:04:50.865Z,13.23
2018-07-23T02:06:54.813Z,7.60
2018-07-23T02:08:59.012Z,6.87
2018-07-23T02:11:02.734Z,8.13
2018-07-23T02:13:06.771Z,7.30
2018-07-23T02:15:10.554Z,7.23
2018-07-23T02:17:14.805Z,6.13
2018-07-23T02:19:19.382Z,6.40
2018-07-23T02:21:23.919Z,6.70
2018-07-23T02:23:28.969Z,6.43
2018-07-23T02:25:33.240Z,6.33
2018-07-23T02:27:37.040Z,6.40
2018-07-23T02:29:41.768Z,6.03
2018-07-23T02:31:45.785Z,5.43
2018-07-23T02:33:50.182Z,6.90
2018-07-23T02:35:54.713Z,6.53
2018-07-23T02:37:58.822Z,9.20
2018-07-23T02:40:02.863Z,7.57
2018-07-23T02:42:08.148Z,7.63
2018-07-23T02:44:12.573Z,7.23
2018-07-23T02:46:16.382Z,6.53
2018-07-23T02:48:20.211Z,8.13
2018-07-23T02:50:24.323Z,6.57
2018-07-23T02:52:28.127Z,6.03
2018-07-23T02:54:32.214Z,5.93
2018-07-23T02:56:36.776Z,6.70
2018-07-23T02:58:40.935Z,7.50
2018-07-23T03:00:46.082Z,6.20
2018-07-23T03:02:50.234Z,6.33
2018-07-23T03:04:57.024Z,6.47
2018-07-23T03:07:01.302Z,6.00
2018-07-23T03:09:06.985Z,6.73
2018-07-23T03:11:12.122Z,6.17
2018-07-23T03:13:16.268Z,6.60
2018-07-23T03:15:21.310Z,7.43
2018-07-23T03:17:26.139Z,7.20
2018-07-23T03:19:31.993Z,8.00
2018-07-23T03:21:36.141Z,6.63
2018-07-23T03:23:40.239Z,6.30
2018-07-23T03:25:44.538Z,6.93
2018-07-23T03:27:48.957Z,6.53
2018-07-23T03:29:53.698Z,7.97
2018-07-23T03:31:57.580Z,6.77
2018-07-23T03:34:01.667Z,6.47
2018-07-23T03:36:05.864Z,6.47
2018-07-23T03:38:10.005Z,6.50
2018-07-23T03:40:14.856Z,6.80
2018-07-23T03:42:19.396Z,6.77
2018-07-23T03:44:23.957Z,6.77
2018-07-23T03:46:28.590Z,6.10
2018-07-23T03:48:33.001Z,6.30
2018-07-23T03:50:36.912Z,7.40
2018-07-23T03:52:41.224Z,6.70
2018-07-23T03:54:45.128Z,6.60
2018-07-23T03:56:50.618Z,7.03
2018-07-23T03:58:54.364Z,8.70
2018-07-23T04:00:58.378Z,6.90
2018-07-23T04:03:02.221Z,6.63
2018-07-23T04:05:06.185Z,6.87
2018-07-23T04:07:10.093Z,6.60
2018-07-23T04:09:14.307Z,7.70
2018-07-23T04:11:18.747Z,6.97
2018-07-23T04:13:22.936Z,5.50
2018-07-23T04:15:27.050Z,6.80
2018-07-23T04:17:31.220Z,6.60
2018-07-23T04:19:35.263Z,7.20
2018-07-23T04:21:39.269Z,6.80
2018-07-23T04:23:43.077Z,7.07
2018-07-23T04:25:47.189Z,6.67
2018-07-23T04:27:52.567Z,7.83
2018-07-23T04:29:56.663Z,6.30
2018-07-23T04:32:00.952Z,7.47
2018-07-23T04:34:06.542Z,6.50
2018-07-23T04:36:10.622Z,7.13
2018-07-23T04:38:14.848Z,7.17
2018-07-23T04:40:19.496Z,7.70
2018-07-23T04:42:24.089Z,6.87
2018-07-23T04:44:28.929Z,6.80
2018-07-23T04:46:32.996Z,8.07
2018-07-23T04:48:41.197Z,7.50
2018-07-23T04:50:45.268Z,6.67
2018-07-23T04:52:49.229Z,6.63
2018-07-23T04:54:53.319Z,7.43
2018-07-23T04:56:57.360Z,7.17
2018-07-23T04:59:01.185Z,8.70
2018-07-23T05:01:05.032Z,7.40
2018-07-23T05:03:09.247Z,7.23
2018-07-23T05:05:13.575Z,8.10
2018-07-23T05:07:17.897Z,7.03
2018-07-23T05:09:21.904Z,7.50
2018-07-23T05:11:26.215Z,6.70
2018-07-23T05:13:30.528Z,7.07
2018-07-23T05:15:35.341Z,7.57
2018-07-23T05:17:39.154Z,7.20
2018-07-23T05:19:42.735Z,7.37
2018-07-23T05:21:46.435Z,7.13
2018-07-23T05:23:50.796Z,6.47
2018-07-23T05:25:54.770Z,8.27
2018-07-23T05:27:58.785Z,6.70
2018-07-23T05:30:03.055Z,6.03
2018-07-23T05:32:06.898Z,7.00
2018-07-23T05:34:11.429Z,6.53
2018-07-23T05:36:15.646Z,7.50
2018-07-23T05:38:19.901Z,7.37
2018-07-23T05:40:23.974Z,6.73
2018-07-23T05:42:28.206Z,7.83
2018-07-23T05:44:32.234Z,7.77
2018-07-23T05:46:36.200Z,6.70
2018-07-23T05:48:40.279Z,7.27
2018-07-23T05:50:44.191Z,7.23
2018-07-23T05:52:48.410Z,6.80
2018-07-23T05:54:52.401Z,8.17
2018-07-23T05:56:56.519Z,6.90
2018-07-23T05:59:00.622Z,6.80
2018-07-23T06:01:05.660Z,6.90
2018-07-23T06:03:10.386Z,7.53
2018-07-23T06:05:14.412Z,7.10
2018-07-23T06:07:18.503Z,6.50
2018-07-23T06:09:22.409Z,8.07
2018-07-23T06:11:26.637Z,8.23
2018-07-23T06:13:30.794Z,7.00
2018-07-23T06:15:34.844Z,6.50
2018-07-23T06:17:39.163Z,6.30
2018-07-23T06:19:43.360Z,6.40
2018-07-23T06:21:47.607Z,6.57
2018-07-23T06:23:51.504Z,6.20
2018-07-23T06:25:55.565Z,7.50
2018-07-23T06:27:59.289Z,7.07
2018-07-23T06:30:03.267Z,6.70
2018-07-23T06:32:07.506Z,6.53
2018-07-23T06:34:11.207Z,7.03
2018-07-23T06:36:15.434Z,7.07
2018-07-23T06:38:20.473Z,6.93
2018-07-23T06:40:24.645Z,7.00
2018-07-23T06:42:29.522Z,6.57
2018-07-23T06:44:33.602Z,7.73
2018-07-23T06:46:37.566Z,6.50
2018-07-23T06:48:41.811Z,7.20
2018-07-23T06:50:45.941Z,6.80
2018-07-23T06:52:49.854Z,7.13
2018-07-23T06:54:54.059Z,7.23
2018-07-23T06:56:58.596Z,6.43
2018-07-23T06:59:02.975Z,6.87
2018-07-23T07:01:07.321Z,6.90
2018-07-23T07:03:12.517Z,6.50
2018-07-23T07:05:16.448Z,6.00
2018-07-23T07:07:20.673Z,6.17
2018-07-23T07:09:24.701Z,7.67
2018-07-23T07:11:28.882Z,5.20
2018-07-23T07:13:32.995Z,7.13
2018-07-23T07:15:37.111Z,7.33
2018-07-23T07:17:41.864Z,6.27
2018-07-23T07:19:46.046Z,6.00
2018-07-23T07:21:50.005Z,6.23
2018-07-23T07:23:53.954Z,6.77
2018-07-23T07:25:58.050Z,5.10
2018-07-23T07:28:02.275Z,8.60
2018-07-23T07:30:06.595Z,6.70
2018-07-23T07:32:10.625Z,6.27
2018-07-23T07:34:15.026Z,6.70
2018-07-23T07:36:19.646Z,6.43
2018-07-23T07:38:23.615Z,6.20
2018-07-23T07:40:28.350Z,6.27
2018-07-23T07:42:32.163Z,6.80
2018-07-23T07:44:36.299Z,6.37
2018-07-23T07:46:40.717Z,5.47
2018-07-23T07:48:44.941Z,6.80
2018-07-23T07:50:48.994Z,6.03
2018-07-23T07:52:53.399Z,6.37
2018-07-23T07:54:57.439Z,6.10
2018-07-23T07:57:02.357Z,6.13
2018-07-23T07:59:06.422Z,5.97
2018-07-23T08:01:10.280Z,6.63
2018-07-23T08:03:14.175Z,6.00
2018-07-23T08:05:18.774Z,5.57
2018-07-23T08:07:22.704Z,6.20
2018-07-23T08:09:26.603Z,5.70
2018-07-23T08:11:31.214Z,5.87
2018-07-23T08:13:36.438Z,5.77
2018-07-23T08:15:40.396Z,5.60
2018-07-23T08:17:44.279Z,6.00
2018-07-23T08:19:48.089Z,5.70
2018-07-23T08:21:51.788Z,5.33
2018-07-23T08:23:55.873Z,5.30
2018-07-23T08:25:59.690Z,7.00
2018-07-23T08:28:03.734Z,6.13
2018-07-23T08:30:08.150Z,6.03
2018-07-23T08:32:12.565Z,5.37
2018-07-23T08:34:16.873Z,5.57
2018-07-23T08:36:21.482Z,5.10
2018-07-23T08:38:25.652Z,5.87
2018-07-23T08:40:29.504Z,5.80
2018-07-23T08:42:34.016Z,6.10
2018-07-23T08:44:37.809Z,6.27
2018-07-23T08:46:42.646Z,7.47
2018-07-23T08:48:46.640Z,5.70
2018-07-23T08:50:50.715Z,5.63
2018-07-23T08:52:54.679Z,5.90
2018-07-23T08:54:58.661Z,4.80
2018-07-23T08:57:02.475Z,4.80
2018-07-23T08:59:06.381Z,6.67
2018-07-23T09:01:10.856Z,5.47
2018-07-23T09:03:14.718Z,5.30
2018-07-23T09:05:18.707Z,4.87
2018-07-23T09:07:23.236Z,5.37
2018-07-23T09:09:27.236Z,5.03
2018-07-23T09:11:31.361Z,4.93
2018-07-23T09:13:35.471Z,5.70
2018-07-23T09:15:39.350Z,5.83
2018-07-23T09:17:43.260Z,5.97
2018-07-23T09:19:47.600Z,5.30
2018-07-23T09:21:51.376Z,6.00
2018-07-23T09:23:55.167Z,5.80
2018-07-23T09:25:59.340Z,5.10
2018-07-23T09:28:03.505Z,6.20
2018-07-23T09:30:08.649Z,5.80
2018-07-23T09:32:13.068Z,5.70
2018-07-23T09:34:17.293Z,5.47
2018-07-23T09:36:21.189Z,5.00
2018-07-23T09:38:25.092Z,5.53
2018-07-23T09:40:29.182Z,4.87
2018-07-23T09:42:33.432Z,5.00
2018-07-23T09:44:37.618Z,5.60
2018-07-23T09:46:41.652Z,5.93
2018-07-23T09:48:45.743Z,5.80
2018-07-23T09:50:49.896Z,5.00
2018-07-23T09:52:53.874Z,5.87
2018-07-23T09:54:57.868Z,4.90
2018-07-23T09:57:01.957Z,5.90
2018-07-23T09:59:06.388Z,4.17
2018-07-23T10:01:10.505Z,5.40
2018-07-23T10:03:15.075Z,5.60
2018-07-23T10:05:19.647Z,4.80
2018-07-23T10:07:23.646Z,5.60
2018-07-23T10:09:27.657Z,5.93
2018-07-23T10:11:31.645Z,5.07
2018-07-23T10:13:35.998Z,5.50
2018-07-23T10:15:40.501Z,5.27
2018-07-23T10:17:44.183Z,5.00
2018-07-23T10:19:48.519Z,5.50
2018-07-23T10:21:52.304Z,5.30
2018-07-23T10:23:57.145Z,4.40
2018-07-23T10:26:01.031Z,4.70
2018-07-23T10:28:05.265Z,5.03
2018-07-23T10:30:09.869Z,5.80
2018-07-23T10:32:14.515Z,5.30
2018-07-23T10:34:18.392Z,4.67
2018-07-23T10:36:22.300Z,5.07
2018-07-23T10:38:26.305Z,4.90
2018-07-23T10:40:30.214Z,4.80
2018-07-23T10:42:34.017Z,4.97
2018-07-23T10:44:38.026Z,5.23
2018-07-23T10:46:42.067Z,6.00
2018-07-23T10:48:46.560Z,5.23
2018-07-23T10:50:50.988Z,5.17
2018-07-23T10:52:55.082Z,5.10
2018-07-23T10:54:58.979Z,6.40
2018-07-23T10:57:02.826Z,5.53
2018-07-23T10:59:06.593Z,4.60
2018-07-23T11:01:11.418Z,4.63
2018-07-23T11:03:15.757Z,5.23
2018-07-23T11:05:19.859Z,5.00
2018-07-23T11:07:23.749Z,5.10
2018-07-23T11:09:28.686Z,4.83
2018-07-23T11:11:33.097Z,4.97
2018-07-23T11:13:37.326Z,5.80
2018-07-23T11:15:41.334Z,4.47
2018-07-23T11:17:45.277Z,5.50
2018-07-23T11:19:49.227Z,4.30
2018-07-23T11:21:53.575Z,6.50
2018-07-23T11:23:57.756Z,4.90
2018-07-23T11:26:01.655Z,5.20
2018-07-23T11:28:05.673Z,4.83
2018-07-23T11:30:09.987Z,4.90
2018-07-23T11:32:14.429Z,5.93
2018-07-23T11:34:18.295Z,5.60
2018-07-23T11:36:22.311Z,5.70
2018-07-23T11:38:26.446Z,5.50
2018-07-23T11:40:30.342Z,5.30
2018-07-23T11:42:34.659Z,5.10
2018-07-23T11:44:38.857Z,5.63
2018-07-23T11:46:42.632Z,4.77
2018-07-23T11:48:46.801Z,4.57
2018-07-23T11:50:50.633Z,8.07
2018-07-23T11:52:55.215Z,5.23
2018-07-23T11:54:59.103Z,6.00
2018-07-23T11:57:03.298Z,10.30
2018-07-23T12:01:16.865Z,72.53
2018-07-23T12:03:20.991Z,77.90
2018-07-23T12:05:25.505Z,47.63
2018-07-23T12:07:29.742Z,41.13
2018-07-23T12:09:34.120Z,30.63
2018-07-23T12:11:38.222Z,25.17
2018-07-23T12:13:42.784Z,21.73
2018-07-23T12:15:46.924Z,27.37
2018-07-23T12:17:51.105Z,236.87
2018-07-23T12:19:54.994Z,54.67
2018-07-23T12:21:59.499Z,50.83
2018-07-23T12:24:03.491Z,36.20
2018-07-23T12:26:07.536Z,33.10
2018-07-23T12:28:11.844Z,28.00
2018-07-23T12:30:16.414Z,29.37
2018-07-23T12:32:20.796Z,24.67
2018-07-23T12:34:24.997Z,22.47
2018-07-23T12:36:29.279Z,20.83
2018-07-23T12:38:33.833Z,18.53
2018-07-23T12:40:38.136Z,18.83
2018-07-23T12:42:43.285Z,19.07
2018-07-23T12:44:48.087Z,15.73
2018-07-23T12:46:52.540Z,15.83
2018-07-23T12:48:57.106Z,15.60
2018-07-23T12:51:01.449Z,15.00
2018-07-23T12:53:19.699Z,15.07
2018-07-23T12:55:24.088Z,13.60
2018-07-23T12:57:28.543Z,13.93
2018-07-23T12:59:33.567Z,11.87
2018-07-23T13:01:37.791Z,12.30
2018-07-23T13:03:42.229Z,13.87
2018-07-23T13:05:46.708Z,15.50
2018-07-23T13:07:50.685Z,12.57
2018-07-23T13:09:54.919Z,11.83
2018-07-23T13:11:58.808Z,12.57
2018-07-23T13:14:02.405Z,11.93
2018-07-23T13:16:06.307Z,14.20
2018-07-23T13:18:10.009Z,12.90
2018-07-23T13:20:13.923Z,10.97
2018-07-23T13:22:20.605Z,12.63
2018-07-23T13:24:24.796Z,13.03
2018-07-23T13:26:28.721Z,12.17
2018-07-23T13:28:32.522Z,9.93
2018-07-23T13:30:36.304Z,10.70
2018-07-23T13:32:40.408Z,11.77
2018-07-23T13:34:45.201Z,11.13
2018-07-23T13:36:48.851Z,12.70
2018-07-23T13:38:52.645Z,10.70
2018-07-23T13:40:56.361Z,12.00
2018-07-23T13:43:00.254Z,10.23
2018-07-23T13:45:04.785Z,10.47
2018-07-23T13:47:08.882Z,10.10
2018-07-23T13:49:12.479Z,10.40
2018-07-23T13:51:16.889Z,10.93
2018-07-23T13:53:20.911Z,9.73
2018-07-23T13:55:25.415Z,9.50
2018-07-23T13:57:29.326Z,9.77
2018-07-23T13:59:33.268Z,9.50
2018-07-23T14:01:37.542Z,9.03
2018-07-23T14:03:42.477Z,8.43
2018-07-23T14:05:46.380Z,8.93
2018-07-23T14:07:50.281Z,12.60
2018-07-23T14:09:53.876Z,13.07
2018-07-23T14:11:57.991Z,11.20
2018-07-23T14:14:01.902Z,11.00
2018-07-23T14:16:05.797Z,13.97
2018-07-23T14:18:10.435Z,14.77
2018-07-23T14:20:14.693Z,12.07
2018-07-23T14:22:18.687Z,10.10
2018-07-23T14:24:22.647Z,15.47
2018-07-23T14:26:26.397Z,18.07
2018-07-23T14:28:30.064Z,12.50
2018-07-23T14:30:34.059Z,10.13
2018-07-23T14:32:38.063Z,12.73
2018-07-23T14:34:41.895Z,11.07
2018-07-23T14:36:46.567Z,9.00
2018-07-23T14:38:50.513Z,10.77
2018-07-23T14:40:55.058Z,13.43
2018-07-23T14:42:59.067Z,10.13
2018-07-23T14:45:04.953Z,10.70
2018-07-23T14:47:09.355Z,13.77
2018-07-23T14:49:14.531Z,9.30
2018-07-23T14:51:18.329Z,10.47
2018-07-23T14:53:22.246Z,10.83
2018-07-23T14:55:26.141Z,9.00
2018-07-23T14:57:29.844Z,12.67
2018-07-23T14:59:33.837Z,10.10
2018-07-23T15:01:37.545Z,10.30
2018-07-23T15:03:41.349Z,10.03
2018-07-23T15:05:45.111Z,10.17
2018-07-23T15:07:48.757Z,10.40
2018-07-23T15:09:52.550Z,8.43
2018-07-23T15:11:56.567Z,9.93
2018-07-23T15:14:00.270Z,12.87
2018-07-23T15:16:04.076Z,11.30
2018-07-23T15:18:08.082Z,8.30
2018-07-23T15:20:12.283Z,9.10
2018-07-23T15:22:16.337Z,8.33
2018-07-23T15:24:19.995Z,12.10
2018-07-23T15:26:23.592Z,11.10
2018-07-23T15:28:28.129Z,8.60
2018-07-23T15:30:32.487Z,9.87
2018-07-23T15:32:38.554Z,7.90
2018-07-23T15:34:42.181Z,8.40
2018-07-23T15:36:46.320Z,8.70
2018-07-23T15:38:52.144Z,8.10
2018-07-23T15:40:55.949Z,8.43
2018-07-23T15:42:59.650Z,8.77
2018-07-23T15:45:04.120Z,8.40
2018-07-23T15:47:07.863Z,9.03
2018-07-23T15:49:11.887Z,7.90
2018-07-23T15:51:15.669Z,7.73
2018-07-23T15:53:19.380Z,8.07
2018-07-23T15:55:23.192Z,8.80
2018-07-23T15:57:26.880Z,7.10
2018-07-23T15:59:30.683Z,7.77
2018-07-23T16:01:34.589Z,8.03
2018-07-23T16:03:38.284Z,6.90
2018-07-23T16:05:42.603Z,8.03
2018-07-23T16:07:46.616Z,8.70
2018-07-23T16:09:50.520Z,7.27
2018-07-23T16:11:54.313Z,7.57
2018-07-23T16:13:58.330Z,8.07
2018-07-23T16:16:02.014Z,8.30
2018-07-23T16:18:05.950Z,8.83
2018-07-23T16:20:09.733Z,7.47
2018-07-23T16:22:13.540Z,7.67
2018-07-23T16:24:17.225Z,8.20
2018-07-23T16:26:21.057Z,7.73
2018-07-23T16:28:24.561Z,7.00
2018-07-23T16:30:28.330Z,7.10
2018-07-23T16:32:32.071Z,7.40
2018-07-23T16:34:35.833Z,7.60
2018-07-23T16:36:39.744Z,9.73
2018-07-23T16:38:43.682Z,7.30
2018-07-23T16:40:47.349Z,6.80
2018-07-23T16:42:51.045Z,6.97
2018-07-23T16:44:54.953Z,6.50
2018-07-23T16:47:00.198Z,7.63
2018-07-23T16:49:04.191Z,8.90
2018-07-23T16:51:08.199Z,9.00
2018-07-23T16:53:12.106Z,10.23
2018-07-23T16:55:16.018Z,7.47
2018-07-23T16:57:19.825Z,7.90
2018-07-23T16:59:23.930Z,7.30
2018-07-23T17:01:27.733Z,8.17
2018-07-23T17:03:31.533Z,7.23
2018-07-23T17:05:35.487Z,6.50
2018-07-23T17:07:39.451Z,6.80
2018-07-23T17:09:43.653Z,6.93
2018-07-23T17:11:48.586Z,6.50
2018-07-23T17:13:52.383Z,6.87
2018-07-23T17:15:57.994Z,11.90
2018-07-23T17:18:02.117Z,7.93
2018-07-23T17:20:06.059Z,6.80
2018-07-23T17:22:09.954Z,6.30
2018-07-23T17:24:13.864Z,8.70
2018-07-23T17:26:18.389Z,6.93
2018-07-23T17:28:22.281Z,8.37
2018-07-23T17:30:26.402Z,6.60
2018-07-23T17:32:31.324Z,7.53
2018-07-23T17:34:35.458Z,6.80
2018-07-23T17:36:39.347Z,7.90
2018-07-23T17:38:43.999Z,6.47
2018-07-23T17:40:48.173Z,8.20
2018-07-23T17:42:52.082Z,9.03
2018-07-23T17:44:56.193Z,7.20
2018-07-23T17:47:00.099Z,8.33
2018-07-23T17:49:04.135Z,14.83
2018-07-23T17:51:07.896Z,6.37
2018-07-23T17:53:11.804Z,8.33
2018-07-23T17:55:17.455Z,7.47
2018-07-23T17:57:21.256Z,6.17
2018-07-23T17:59:25.883Z,6.77
2018-07-23T18:01:29.882Z,7.07
2018-07-23T18:03:33.786Z,6.17
2018-07-23T18:05:37.804Z,7.43
2018-07-23T18:07:41.704Z,7.47
2018-07-23T18:09:46.831Z,7.20
2018-07-23T18:11:50.540Z,6.73
2018-07-23T18:13:54.740Z,6.63
2018-07-23T18:16:02.265Z,7.47
2018-07-23T18:18:06.659Z,6.20
2018-07-23T18:20:10.555Z,6.60
2018-07-23T18:22:14.462Z,6.73
2018-07-23T18:24:18.570Z,6.47
2018-07-23T18:26:23.504Z,7.43
2018-07-23T18:28:27.308Z,6.67
2018-07-23T18:30:31.629Z,7.60
2018-07-23T18:32:35.518Z,7.40
2018-07-23T18:34:42.400Z,6.30
2018-07-23T18:36:46.200Z,7.10
2018-07-23T18:38:51.697Z,7.37
2018-07-23T18:40:56.173Z,6.33
2018-07-23T18:43:00.068Z,8.07
2018-07-23T18:45:03.985Z,8.00
2018-07-23T18:47:08.387Z,7.03
2018-07-23T18:49:12.323Z,7.60
2018-07-23T18:51:16.403Z,6.47
2018-07-23T18:53:19.907Z,6.70
2018-07-23T18:55:24.008Z,8.00
2018-07-23T18:57:28.015Z,6.57
2018-07-23T18:59:32.582Z,7.87
2018-07-23T19:01:37.729Z,7.40
2018-07-23T19:03:43.851Z,7.70
2018-07-23T19:05:47.732Z,6.90
2018-07-23T19:07:51.437Z,6.80
2018-07-23T19:09:55.726Z,8.27
2018-07-23T19:12:02.390Z,7.10
2018-07-23T19:14:06.222Z,6.10
2018-07-23T19:16:10.143Z,7.60
2018-07-23T19:18:14.035Z,14.80
2018-07-23T19:20:18.373Z,8.13
2018-07-23T19:22:22.261Z,8.50
2018-07-23T19:24:27.172Z,7.97
2018-07-23T19:26:31.605Z,7.60
2018-07-23T19:28:35.560Z,6.90
2018-07-23T19:30:39.405Z,7.70
2018-07-23T19:32:43.643Z,83.93
2018-07-23T19:34:48.048Z,74.83
2018-07-23T19:36:51.949Z,67.97
2018-07-23T19:38:56.682Z,66.13
2018-07-23T19:41:00.791Z,64.97
2018-07-23T19:43:04.997Z,63.20
2018-07-23T19:45:08.890Z,60.27
2018-07-23T19:47:13.313Z,56.33
2018-07-23T19:49:17.427Z,45.77
2018-07-23T19:51:21.534Z,48.43
2018-07-23T19:53:26.156Z,45.43
2018-07-23T19:55:30.063Z,43.80
2018-07-23T19:57:34.076Z,41.17
2018-07-23T19:59:38.298Z,39.37
2018-07-23T20:01:43.226Z,46.07
2018-07-23T20:03:47.448Z,34.30
2018-07-23T20:05:51.536Z,30.10
2018-07-23T20:07:55.435Z,32.63
2018-07-23T20:09:59.755Z,31.50
2018-07-23T20:12:03.660Z,35.40
2018-07-23T20:14:07.969Z,31.43
2018-07-23T20:16:11.918Z,36.93
2018-07-23T20:18:16.397Z,25.20
2018-07-23T20:20:20.611Z,31.40
2018-07-23T20:22:24.617Z,25.53
2018-07-23T20:24:28.622Z,28.40
2018-07-23T20:26:33.063Z,28.00
2018-07-23T20:28:37.369Z,34.80
2018-07-23T20:30:41.461Z,22.67
2018-07-23T20:32:45.681Z,28.80
2018-07-23T20:34:49.730Z,26.03
2018-07-23T20:36:54.306Z,23.67
2018-07-23T20:39:00.530Z,24.80
2018-07-23T20:41:04.566Z,27.57
2018-07-23T20:43:09.418Z,22.33
2018-07-23T20:45:13.514Z,26.47
2018-07-23T20:47:17.508Z,22.73
2018-07-23T20:49:21.732Z,23.17
2018-07-23T20:51:25.943Z,21.70
2018-07-23T20:53:31.311Z,21.47
2018-07-23T20:55:35.468Z,19.73
2018-07-23T20:57:39.602Z,17.90
2018-07-23T20:59:43.697Z,17.77
2018-07-23T21:01:48.050Z,15.93
2018-07-23T21:03:52.106Z,21.43
2018-07-23T21:05:57.377Z,17.50
2018-07-23T21:08:01.693Z,15.90
2018-07-23T21:10:05.585Z,16.63
2018-07-23T21:12:10.051Z,21.10
2018-07-23T21:14:14.949Z,17.87
2018-07-23T21:16:19.052Z,19.97
2018-07-23T21:18:23.523Z,16.60
2018-07-23T21:20:27.901Z,15.27
2018-07-23T21:22:31.997Z,14.47
2018-07-23T21:24:36.311Z,18.57
2018-07-23T21:26:40.633Z,16.97
2018-07-23T21:28:45.237Z,14.57
2018-07-23T21:30:48.983Z,15.67
2018-07-23T21:32:53.167Z,17.23
2018-07-23T21:34:57.471Z,16.40
2018-07-23T21:37:02.007Z,19.20
2018-07-23T21:39:06.118Z,12.43
2018-07-23T21:41:10.430Z,18.73
2018-07-23T21:43:14.524Z,14.60
2018-07-23T21:45:18.737Z,13.30
2018-07-23T21:47:23.153Z,14.70
2018-07-23T21:49:27.262Z,13.97
2018-07-23T21:51:31.477Z,14.80
2018-07-23T21:53:36.019Z,20.03
2018-07-23T21:55:40.111Z,15.23
2018-07-23T21:57:44.214Z,14.03
2018-07-23T21:59:48.221Z,14.30
2018-07-23T22:01:53.159Z,13.90
2018-07-23T22:04:01.056Z,14.60
2018-07-23T22:06:05.168Z,13.87
2018-07-23T22:08:10.499Z,10.93
2018-07-23T22:10:15.224Z,13.73
2018-07-23T22:12:19.542Z,11.90
2018-07-23T22:14:23.652Z,10.73
2018-07-23T22:16:28.091Z,12.00
2018-07-23T22:18:31.963Z,11.27
2018-07-23T22:20:36.185Z,9.77
2018-07-23T22:22:40.913Z,11.30
2018-07-23T22:24:45.529Z,10.67
2018-07-23T22:26:50.361Z,10.77
2018-07-23T22:28:56.215Z,11.50
2018-07-23T22:31:00.006Z,10.00
2018-07-23T22:33:04.123Z,11.47
2018-07-23T22:35:08.021Z,13.80
2018-07-23T22:37:13.288Z,12.73
2018-07-23T22:39:17.157Z,9.47
2018-07-23T22:41:21.392Z,12.40
2018-07-23T22:43:25.489Z,12.20
2018-07-23T22:45:29.783Z,12.60
2018-07-23T22:47:33.908Z,11.63
2018-07-23T22:49:37.579Z,11.03
2018-07-23T22:51:41.816Z,14.00
2018-07-23T22:53:45.642Z,11.57
2018-07-23T22:55:49.631Z,11.03
2018-07-23T22:57:53.637Z,11.37
2018-07-23T22:59:58.180Z,11.10
2018-07-23T23:02:02.585Z,11.80
2018-07-23T23:04:06.782Z,11.37
2018-07-23T23:06:11.109Z,10.20
2018-07-23T23:08:15.113Z,10.40
2018-07-23T23:10:19.357Z,10.47
2018-07-23T23:12:23.941Z,10.50
2018-07-23T23:14:28.395Z,10.67
2018-07-23T23:16:32.475Z,11.03
2018-07-23T23:18:36.482Z,11.90
2018-07-23T23:20:40.280Z,13.33
2018-07-23T23:22:44.197Z,10.83
2018-07-23T23:24:48.191Z,11.73
2018-07-23T23:26:52.301Z,11.00
2018-07-23T23:28:56.616Z,10.77
2018-07-23T23:31:00.535Z,10.93
2018-07-23T23:33:06.590Z,10.23
2018-07-23T23:35:10.725Z,12.00
2018-07-23T23:37:14.595Z,11.83
2018-07-23T23:39:18.730Z,12.80
2018-07-23T23:41:22.515Z,15.07
2018-07-23T23:43:26.418Z,11.23
2018-07-23T23:45:30.417Z,10.53
2018-07-23T23:47:34.433Z,10.57
2018-07-23T23:49:38.244Z,10.87
2018-07-23T23:51:42.751Z,12.77
2018-07-23T23:53:46.552Z,16.03
2018-07-23T23:55:50.594Z,11.93
2018-07-23T23:57:56.413Z,11.33
